createdAt,value
2019-05-25T00:02:19.423Z,99133.00
2019-05-25T00:05:09.211Z,99130.70
2019-05-25T00:07:58.974Z,99135.51
2019-05-25T00:10:48.750Z,99130.58
2019-05-25T00:13:38.550Z,99134.09
2019-05-25T00:19:25.057Z,99131.91
2019-05-25T00:22:14.848Z,99134.54
2019-05-25T00:25:04.833Z,99131.49
2019-05-25T00:27:54.615Z,99127.77
2019-05-25T00:30:44.428Z,99120.95
2019-05-25T00:33:34.178Z,99120.37
2019-05-25T00:36:24.006Z,99124.52
2019-05-25T00:39:13.799Z,99126.89
2019-05-25T00:42:03.575Z,99129.18
2019-05-25T00:44:53.323Z,99129.13
2019-05-25T00:47:43.123Z,99125.98
2019-05-25T00:50:32.865Z,99121.84
2019-05-25T00:53:22.639Z,99125.38
2019-05-25T00:55:53.004Z,99122.06
2019-05-25T00:58:42.787Z,99116.08
2019-05-25T01:01:32.514Z,99121.22
2019-05-25T01:04:22.301Z,99123.09
2019-05-25T01:07:12.022Z,99127.14
2019-05-25T01:10:02.260Z,99133.80
2019-05-25T01:12:53.270Z,99131.56
2019-05-25T01:15:43.049Z,99126.99
2019-05-25T01:18:32.803Z,99130.05
2019-05-25T01:21:22.575Z,99131.48
2019-05-25T01:24:12.343Z,99134.17
2019-05-25T01:27:02.107Z,99131.31
2019-05-25T01:29:51.861Z,99143.30
2019-05-25T01:32:41.721Z,99142.45
2019-05-25T01:35:31.405Z,99145.45
2019-05-25T01:41:37.315Z,99146.56
2019-05-25T01:44:27.106Z,99146.74
2019-05-25T01:47:16.862Z,99139.13
2019-05-25T01:50:06.889Z,99139.01
2019-05-25T01:52:37.358Z,99139.13
2019-05-25T01:55:27.089Z,99137.91
2019-05-25T01:57:57.503Z,99138.43
2019-05-25T02:00:47.252Z,99147.17
2019-05-25T02:03:37.056Z,99141.49
2019-05-25T02:06:07.481Z,99147.14
2019-05-25T02:08:57.257Z,99148.00
2019-05-25T02:11:46.992Z,99147.84
2019-05-25T02:14:17.370Z,99143.47
2019-05-25T02:17:07.100Z,99141.05
2019-05-25T02:19:56.873Z,99141.89
2019-05-25T02:22:46.626Z,99146.09
2019-05-25T02:25:18.758Z,99142.42
2019-05-25T02:28:08.660Z,99144.38
2019-05-25T02:30:58.430Z,99147.27
2019-05-25T02:33:48.173Z,99140.86
2019-05-25T02:36:37.959Z,99141.60
2019-05-25T02:39:27.731Z,99140.72
2019-05-25T02:42:17.502Z,99134.68
2019-05-25T02:48:28.500Z,99144.86
2019-05-25T02:51:18.258Z,99145.01
2019-05-25T02:54:08.159Z,99146.31
2019-05-25T02:56:57.909Z,99148.30
2019-05-25T02:59:47.693Z,99143.03
2019-05-25T03:02:37.563Z,99141.33
2019-05-25T03:05:27.436Z,99139.50
2019-05-25T03:08:17.186Z,99138.40
2019-05-25T03:11:06.952Z,99145.66
2019-05-25T03:13:56.886Z,99147.60
2019-05-25T03:16:46.631Z,99146.09
2019-05-25T03:19:17.090Z,99147.98
2019-05-25T03:22:06.841Z,99152.96
2019-05-25T03:24:37.222Z,99155.91
2019-05-25T03:27:26.985Z,99147.73
2019-05-25T03:30:56.190Z,99150.13
2019-05-25T03:33:45.931Z,99151.23
2019-05-25T03:36:35.736Z,99153.23
2019-05-25T03:39:25.486Z,99149.74
2019-05-25T03:41:55.857Z,99151.00
2019-05-25T03:44:45.619Z,99151.34
2019-05-25T03:47:35.405Z,99154.84
2019-05-25T03:50:25.254Z,99157.44
2019-05-25T03:53:15.043Z,99158.28
2019-05-25T03:56:06.362Z,99164.84
2019-05-25T03:58:48.053Z,99161.46
2019-05-25T04:01:38.155Z,99161.00
2019-05-25T04:04:28.034Z,99163.47
2019-05-25T04:07:17.800Z,99163.26
2019-05-25T04:13:24.672Z,99171.51
2019-05-25T04:16:02.178Z,99170.67
2019-05-25T04:18:51.960Z,99173.80
2019-05-25T04:21:41.715Z,99175.70
2019-05-25T04:24:31.506Z,99182.62
2019-05-25T04:27:21.227Z,99186.29
2019-05-25T04:30:11.079Z,99190.42
2019-05-25T04:33:00.853Z,99190.89
2019-05-25T04:35:50.625Z,99191.97
2019-05-25T04:38:40.509Z,99195.52
2019-05-25T04:41:30.258Z,99199.33
2019-05-25T04:44:20.004Z,99209.67
2019-05-25T04:47:09.760Z,99207.11
2019-05-25T04:50:18.551Z,99208.52
2019-05-25T04:53:08.284Z,99209.39
2019-05-25T04:55:58.033Z,99215.49
2019-05-25T04:58:47.805Z,99209.31
2019-05-25T05:01:37.552Z,99205.08
2019-05-25T05:04:27.335Z,99211.09
2019-05-25T05:07:17.088Z,99210.52
2019-05-25T05:10:07.474Z,99214.59
2019-05-25T05:12:57.247Z,99210.48
2019-05-25T05:15:47.022Z,99216.17
2019-05-25T05:18:18.245Z,99214.77
2019-05-25T05:21:08.052Z,99215.37
2019-05-25T05:23:57.828Z,99222.10
2019-05-25T05:26:55.817Z,99223.45
2019-05-25T05:29:39.068Z,99230.53
2019-05-25T05:32:28.876Z,99230.92
2019-05-25T05:35:18.631Z,99232.46
2019-05-25T05:38:08.399Z,99231.41
2019-05-25T05:44:22.511Z,99232.23
2019-05-25T05:56:05.774Z,99248.77
2019-05-25T05:58:55.590Z,99249.80
2019-05-25T06:01:45.445Z,99254.30
2019-05-25T06:04:35.289Z,99252.43
2019-05-25T06:07:27.400Z,99252.50
2019-05-25T06:10:47.672Z,99260.55
2019-05-25T06:13:37.443Z,99250.55
2019-05-25T06:16:27.266Z,99259.31
2019-05-25T06:19:17.051Z,99259.80
2019-05-25T06:22:06.873Z,99251.47
2019-05-25T06:24:56.662Z,99261.67
2019-05-25T06:27:46.883Z,99258.06
2019-05-25T06:30:20.313Z,99264.36
2019-05-25T06:33:10.152Z,99261.91
2019-05-25T06:35:59.944Z,99260.14
2019-05-25T06:38:49.726Z,99254.50
2019-05-25T06:41:40.328Z,99257.02
2019-05-25T06:44:30.138Z,99264.13
2019-05-25T06:50:46.704Z,99266.70
2019-05-25T06:53:17.162Z,99265.66
2019-05-25T06:56:07.288Z,99260.52
2019-05-25T06:58:57.045Z,99264.48
2019-05-25T07:01:46.815Z,99261.56
2019-05-25T07:04:17.205Z,99265.49
2019-05-25T07:07:07.003Z,99264.94
2019-05-25T07:09:56.766Z,99263.39
2019-05-25T07:12:46.555Z,99262.90
2019-05-25T07:15:18.657Z,99262.31
2019-05-25T07:18:08.449Z,99268.11
2019-05-25T07:20:58.239Z,99268.64
2019-05-25T07:23:48.022Z,99275.01
2019-05-25T07:26:18.406Z,99276.56
2019-05-25T07:29:08.158Z,99262.29
2019-05-25T07:31:57.926Z,99263.27
2019-05-25T07:34:28.321Z,99256.38
2019-05-25T07:37:18.084Z,99265.50
2019-05-25T07:40:47.317Z,99275.02
2019-05-25T07:43:17.685Z,99271.35
2019-05-25T07:46:07.500Z,99271.75
2019-05-25T07:48:37.901Z,99273.97
2019-05-25T07:51:08.318Z,99274.89
2019-05-25T07:53:58.088Z,99275.08
2019-05-25T07:56:50.643Z,99281.86
2019-05-25T07:59:40.410Z,99280.61
2019-05-25T08:02:30.195Z,99273.43
2019-05-25T08:05:19.955Z,99270.52
2019-05-25T08:08:09.850Z,99272.04
2019-05-25T08:10:59.659Z,99270.35
2019-05-25T08:13:49.453Z,99276.95
2019-05-25T08:16:39.255Z,99277.30
2019-05-25T08:19:29.043Z,99273.50
2019-05-25T08:22:18.844Z,99285.42
2019-05-25T08:24:49.267Z,99287.69
2019-05-25T08:27:39.108Z,99282.81
2019-05-25T08:30:28.925Z,99281.58
2019-05-25T08:33:18.694Z,99277.87
2019-05-25T08:36:08.519Z,99279.00
2019-05-25T08:38:58.315Z,99275.62
2019-05-25T08:41:48.135Z,99275.03
2019-05-25T08:44:37.929Z,99275.16
2019-05-25T08:47:08.455Z,99268.56
2019-05-25T08:49:58.232Z,99272.69
2019-05-25T08:52:48.025Z,99270.67
2019-05-25T08:55:37.859Z,99274.75
2019-05-25T08:58:08.662Z,99271.16
2019-05-25T09:00:39.297Z,99268.42
2019-05-25T09:03:29.161Z,99274.27
2019-05-25T09:06:18.943Z,99272.80
2019-05-25T09:09:08.947Z,99274.47
2019-05-25T09:11:58.767Z,99277.79
2019-05-25T09:14:48.572Z,99277.92
2019-05-25T09:17:38.337Z,99279.39
2019-05-25T09:20:30.118Z,99282.03
2019-05-25T09:23:00.558Z,99278.13
2019-05-25T09:25:50.359Z,99279.13
2019-05-25T09:28:40.178Z,99276.52
2019-05-25T09:31:30.014Z,99273.31
2019-05-25T09:34:19.784Z,99270.70
2019-05-25T09:37:09.556Z,99279.28
2019-05-25T09:39:59.365Z,99280.59
2019-05-25T09:42:49.284Z,99284.63
2019-05-25T09:45:39.064Z,99285.70
2019-05-25T09:48:28.829Z,99290.10
2019-05-25T09:51:18.662Z,99278.94
2019-05-25T09:54:08.468Z,99276.89
2019-05-25T09:56:58.324Z,99276.95
2019-05-25T09:59:28.749Z,99286.27
2019-05-25T10:02:18.521Z,99282.39
2019-05-25T10:08:43.298Z,99281.09
2019-05-25T10:11:33.171Z,99285.80
2019-05-25T10:14:22.983Z,99283.71
2019-05-25T10:17:12.773Z,99278.70
2019-05-25T10:23:18.759Z,99268.13
2019-05-25T10:26:08.659Z,99276.03
2019-05-25T10:28:58.409Z,99273.14
2019-05-25T10:31:48.275Z,99268.70
2019-05-25T10:34:38.047Z,99268.95
2019-05-25T10:37:27.919Z,99266.20
2019-05-25T10:40:17.657Z,99262.77
2019-05-25T10:46:22.822Z,99264.97
2019-05-25T10:49:12.607Z,99261.92
2019-05-25T10:52:02.434Z,99259.98
2019-05-25T10:54:32.822Z,99256.09
2019-05-25T10:57:22.615Z,99256.30
2019-05-25T11:03:47.366Z,99242.84
2019-05-25T11:09:21.117Z,99241.42
2019-05-25T11:12:10.927Z,99236.88
2019-05-25T11:15:00.741Z,99236.06
2019-05-25T11:17:51.554Z,99229.38
2019-05-25T11:20:41.397Z,99224.64
2019-05-25T11:23:31.154Z,99220.28
2019-05-25T11:26:20.951Z,99219.06
2019-05-25T11:29:10.714Z,99217.73
2019-05-25T11:32:04.470Z,99218.27
2019-05-25T11:34:43.999Z,99216.77
2019-05-25T11:37:33.862Z,99218.63
2019-05-25T11:40:23.693Z,99209.78
2019-05-25T11:43:13.487Z,99211.78
2019-05-25T11:46:03.241Z,99209.79
2019-05-25T11:48:53.031Z,99203.61
2019-05-25T11:51:42.793Z,99207.64
2019-05-25T11:54:13.170Z,99198.17
2019-05-25T11:57:02.908Z,99198.84
2019-05-25T11:59:33.478Z,99199.44
2019-05-25T12:02:23.214Z,99209.20
2019-05-25T12:08:29.135Z,99201.56
2019-05-25T12:11:18.959Z,99195.88
2019-05-25T12:14:08.781Z,99206.67
2019-05-25T12:16:58.599Z,99199.19
2019-05-25T12:19:48.417Z,99198.54
2019-05-25T12:25:20.983Z,99199.94
2019-05-25T12:28:10.750Z,99196.06
2019-05-25T12:31:00.555Z,99196.15
2019-05-25T12:33:50.301Z,99190.17
2019-05-25T12:36:40.080Z,99185.19
2019-05-25T12:39:12.070Z,99184.97
2019-05-25T12:42:01.842Z,99195.14
2019-05-25T12:44:51.576Z,99187.53
2019-05-25T12:47:41.397Z,99179.53
2019-05-25T12:50:31.142Z,99182.22
2019-05-25T12:53:21.017Z,99189.34
2019-05-25T12:56:10.791Z,99184.08
2019-05-25T12:59:00.563Z,99180.67
2019-05-25T13:01:50.297Z,99183.24
2019-05-25T13:04:40.099Z,99171.50
2019-05-25T13:07:29.882Z,99174.88
2019-05-25T13:10:19.693Z,99169.99
2019-05-25T13:13:09.467Z,99167.64
2019-05-25T13:15:59.262Z,99164.20
2019-05-25T13:18:49.017Z,99160.25
2019-05-25T13:21:38.786Z,99156.27
2019-05-25T13:24:28.531Z,99158.90
2019-05-25T13:27:18.353Z,99160.88
2019-05-25T13:33:10.038Z,99155.99
2019-05-25T13:35:59.808Z,99154.21
2019-05-25T13:38:49.602Z,99153.06
2019-05-25T13:41:39.367Z,99146.61
2019-05-25T13:44:29.157Z,99139.33
2019-05-25T13:47:18.899Z,99143.63
2019-05-25T13:53:25.163Z,99136.91
2019-05-25T13:56:16.705Z,99139.89
2019-05-25T13:59:06.503Z,99139.58
2019-05-25T14:01:56.252Z,99139.67
2019-05-25T14:04:46.063Z,99132.59
2019-05-25T14:07:35.858Z,99131.40
2019-05-25T14:10:25.651Z,99130.08
2019-05-25T14:13:15.466Z,99127.68
2019-05-25T14:15:45.869Z,99125.27
2019-05-25T14:18:35.645Z,99126.95
2019-05-25T14:21:25.444Z,99126.07
2019-05-25T14:24:15.221Z,99126.52
2019-05-25T14:27:05.006Z,99123.16
2019-05-25T14:29:54.764Z,99130.22
2019-05-25T14:32:44.536Z,99124.02
2019-05-25T14:35:34.410Z,99127.47
2019-05-25T14:38:43.429Z,99122.81
2019-05-25T14:41:33.266Z,99122.67
2019-05-25T14:44:23.052Z,99112.21
2019-05-25T14:47:12.824Z,99117.32
2019-05-25T14:50:02.612Z,99112.57
2019-05-25T14:52:32.990Z,99100.09
2019-05-25T14:55:22.795Z,99104.78
2019-05-25T14:58:12.994Z,99106.50
2019-05-25T15:00:56.089Z,99107.84
2019-05-25T15:03:45.869Z,99104.81
2019-05-25T15:06:35.710Z,99107.18
2019-05-25T15:09:25.553Z,99107.27
2019-05-25T15:12:15.332Z,99101.23
2019-05-25T15:15:05.701Z,99103.76
2019-05-25T15:17:37.681Z,99104.45
2019-05-25T15:20:28.699Z,99096.02
2019-05-25T15:23:18.489Z,99104.13
2019-05-25T15:26:08.286Z,99110.14
2019-05-25T15:28:58.061Z,99111.33
2019-05-25T15:31:28.443Z,99103.54
2019-05-25T15:34:18.239Z,99103.11
2019-05-25T15:37:08.011Z,99104.08
2019-05-25T15:39:38.398Z,99104.87
2019-05-25T15:42:28.179Z,99108.82
2019-05-25T15:45:17.997Z,99107.27
2019-05-25T15:48:07.751Z,99112.67
2019-05-25T15:50:57.525Z,99116.98
2019-05-25T15:53:47.269Z,99106.37
2019-05-25T15:56:17.760Z,99107.03
2019-05-25T15:59:07.523Z,99110.63
2019-05-25T16:01:57.297Z,99116.12
2019-05-25T16:04:29.375Z,99112.84
2019-05-25T16:07:19.154Z,99115.71
2019-05-25T16:13:33.083Z,99119.27
2019-05-25T16:16:03.471Z,99119.58
2019-05-25T16:18:53.253Z,99118.02
2019-05-25T16:21:43.010Z,99107.94
2019-05-25T16:24:32.789Z,99106.63
2019-05-25T16:27:22.541Z,99109.58
2019-05-25T16:30:51.721Z,99114.00
2019-05-25T16:33:41.455Z,99113.92
2019-05-25T16:36:31.271Z,99115.53
2019-05-25T16:39:21.036Z,99114.74
2019-05-25T16:41:51.427Z,99118.03
2019-05-25T16:44:41.324Z,99120.03
2019-05-25T16:47:42.632Z,99119.11
2019-05-25T16:53:39.348Z,99120.90
2019-05-25T16:56:29.137Z,99114.38
2019-05-25T16:59:18.913Z,99114.48
2019-05-25T17:02:08.683Z,99118.14
2019-05-25T17:04:39.069Z,99108.10
2019-05-25T17:07:28.850Z,99107.36
2019-05-25T17:10:18.656Z,99113.64
2019-05-25T17:13:08.436Z,99107.12
2019-05-25T17:15:58.247Z,99109.92
2019-05-25T17:18:47.985Z,99105.11
2019-05-25T17:21:18.456Z,99104.42
2019-05-25T17:24:08.280Z,99106.94
2019-05-25T17:26:58.116Z,99105.30
2019-05-25T17:29:47.895Z,99100.86
2019-05-25T17:32:18.450Z,99102.14
2019-05-25T17:35:08.524Z,99111.70
2019-05-25T17:37:38.896Z,99103.67
2019-05-25T17:40:28.661Z,99105.34
2019-05-25T17:43:18.481Z,99110.32
2019-05-25T17:46:08.283Z,99110.84
2019-05-25T17:48:58.111Z,99108.09
2019-05-25T17:51:47.884Z,99110.53
2019-05-25T17:54:18.457Z,99118.69
2019-05-25T17:57:08.236Z,99115.67
2019-05-25T17:59:59.598Z,99118.66
2019-05-25T18:02:49.542Z,99114.45
2019-05-25T18:05:39.365Z,99109.43
2019-05-25T18:08:29.130Z,99113.03
2019-05-25T18:11:18.924Z,99112.30
2019-05-25T18:14:09.188Z,99117.39
2019-05-25T18:16:59.047Z,99117.85
2019-05-25T18:19:29.373Z,99119.20
2019-05-25T18:22:19.199Z,99120.05
2019-05-25T18:25:08.996Z,99120.52
2019-05-25T18:27:58.784Z,99122.33
2019-05-25T18:30:48.656Z,99123.28
2019-05-25T18:33:38.449Z,99132.41
2019-05-25T18:36:28.313Z,99136.48
2019-05-25T18:39:18.160Z,99140.44
2019-05-25T18:42:07.959Z,99146.13
2019-05-25T18:44:57.741Z,99145.19
2019-05-25T18:47:47.536Z,99147.02
2019-05-25T18:50:57.355Z,99152.91
2019-05-25T18:53:47.159Z,99161.32
2019-05-25T18:56:36.984Z,99161.77
2019-05-25T18:59:26.740Z,99160.86
2019-05-25T19:01:57.297Z,99162.70
2019-05-25T19:04:58.270Z,99167.43
2019-05-25T19:07:30.170Z,99167.14
2019-05-25T19:10:40.459Z,99169.25
2019-05-25T19:13:30.232Z,99169.22
2019-05-25T19:16:20.058Z,99164.35
2019-05-25T19:19:09.843Z,99177.33
2019-05-25T19:21:40.309Z,99172.66
2019-05-25T19:24:30.089Z,99175.14
2019-05-25T19:27:20.163Z,99177.63
2019-05-25T19:30:49.409Z,99177.97
2019-05-25T19:33:39.207Z,99183.72
2019-05-25T19:36:28.997Z,99182.92
2019-05-25T19:39:18.795Z,99186.36
2019-05-25T19:42:08.620Z,99184.00
2019-05-25T19:44:58.405Z,99181.90
2019-05-25T19:47:48.182Z,99178.63
2019-05-25T19:50:18.605Z,99180.45
2019-05-25T19:53:08.439Z,99181.11
2019-05-25T19:55:58.226Z,99186.75
2019-05-25T19:58:47.989Z,99188.05
2019-05-25T20:01:18.419Z,99187.94
2019-05-25T20:04:08.204Z,99192.13
2019-05-25T20:06:58.104Z,99196.78
2019-05-25T20:09:47.891Z,99199.28
2019-05-25T20:12:18.304Z,99198.66
2019-05-25T20:15:08.254Z,99202.38
2019-05-25T20:17:58.077Z,99214.73
2019-05-25T20:20:47.878Z,99209.44
2019-05-25T20:23:18.341Z,99207.73
2019-05-25T20:26:08.151Z,99210.78
2019-05-25T20:28:57.916Z,99216.77
2019-05-25T20:31:47.726Z,99216.55
2019-05-25T20:34:18.301Z,99212.77
2019-05-25T20:37:08.088Z,99208.42
2019-05-25T20:39:57.915Z,99211.29
2019-05-25T20:42:47.661Z,99210.83
2019-05-25T20:48:44.650Z,99216.26
2019-05-25T20:51:34.461Z,99219.35
2019-05-25T20:54:24.275Z,99222.72
2019-05-25T20:57:14.062Z,99220.48
2019-05-25T21:03:19.660Z,99224.13
2019-05-25T21:06:09.439Z,99223.55
2019-05-25T21:08:39.894Z,99225.01
2019-05-25T21:11:29.681Z,99227.98
2019-05-25T21:14:19.445Z,99221.50
2019-05-25T21:16:49.868Z,99225.01
2019-05-25T21:19:39.676Z,99228.83
2019-05-25T21:22:10.075Z,99234.08
2019-05-25T21:25:05.523Z,99233.69
2019-05-25T21:27:51.415Z,99236.19
2019-05-25T21:30:21.943Z,99230.55
2019-05-25T21:33:11.745Z,99237.48
2019-05-25T21:36:08.123Z,99235.85
2019-05-25T21:38:53.026Z,99234.17
2019-05-25T21:41:42.956Z,99237.77
2019-05-25T21:44:14.962Z,99235.92
2019-05-25T21:47:04.755Z,99234.92
2019-05-25T21:49:54.514Z,99237.06
2019-05-25T21:52:24.954Z,99236.00
2019-05-25T21:55:14.791Z,99242.36
2019-05-25T21:58:04.576Z,99243.18
2019-05-25T22:00:54.488Z,99242.54
2019-05-25T22:03:25.028Z,99250.25
2019-05-25T22:06:23.739Z,99258.12
2019-05-25T22:08:57.736Z,99255.25
2019-05-25T22:11:47.492Z,99256.99
2019-05-25T22:14:37.251Z,99264.47
2019-05-25T22:17:27.033Z,99258.90
2019-05-25T22:20:16.922Z,99256.30
2019-05-25T22:22:47.282Z,99257.55
2019-05-25T22:25:37.072Z,99250.62
2019-05-25T22:28:43.487Z,99250.12
2019-05-25T22:31:18.288Z,99253.33
2019-05-25T22:34:08.069Z,99253.05
2019-05-25T22:36:57.864Z,99252.55
2019-05-25T22:39:47.639Z,99253.89
2019-05-25T22:42:37.423Z,99246.66
2019-05-25T22:45:27.176Z,99244.45
2019-05-25T22:48:16.939Z,99245.64
2019-05-25T22:51:06.709Z,99246.59
2019-05-25T22:53:56.460Z,99252.02
2019-05-25T22:56:46.218Z,99250.34
2019-05-25T22:59:36.027Z,99255.08
2019-05-25T23:02:25.792Z,99253.22
2019-05-25T23:05:15.667Z,99249.32
2019-05-25T23:08:05.569Z,99242.31
2019-05-25T23:10:55.341Z,99241.52
2019-05-25T23:13:45.100Z,99245.14
2019-05-25T23:16:34.891Z,99245.88
2019-05-25T23:19:24.632Z,99243.96
2019-05-25T23:22:14.437Z,99249.32
2019-05-25T23:25:04.177Z,99240.70
2019-05-25T23:27:54.001Z,99241.59
2019-05-25T23:30:43.773Z,99240.85
2019-05-25T23:33:33.592Z,99234.44
2019-05-25T23:36:23.380Z,99234.02
2019-05-25T23:39:13.115Z,99235.04
2019-05-25T23:42:02.898Z,99243.73
2019-05-25T23:44:52.653Z,99238.48
2019-05-25T23:47:42.409Z,99240.56
2019-05-25T23:50:32.156Z,99241.78
2019-05-25T23:53:21.937Z,99243.70
2019-05-25T23:56:12.071Z,99245.20
2019-05-25T23:58:42.633Z,99237.42
